createdAt,value
2023-06-19T00:00:58.450Z,32.59
2023-06-19T00:01:58.477Z,32.51
2023-06-19T00:02:58.556Z,32.43
2023-06-19T00:03:58.624Z,32.39
2023-06-19T00:04:58.606Z,32.30
2023-06-19T00:05:58.647Z,32.60
2023-06-19T00:06:58.730Z,32.47
2023-06-19T00:07:58.748Z,32.44
2023-06-19T00:08:58.847Z,32.36
2023-06-19T00:09:58.868Z,32.79
2023-06-19T00:10:58.931Z,32.54
2023-06-19T00:11:58.943Z,32.33
2023-06-19T00:12:59.015Z,32.52
2023-06-19T00:13:59.049Z,32.48
2023-06-19T00:14:59.085Z,32.58
2023-06-19T00:15:59.148Z,32.54
2023-06-19T00:16:59.219Z,32.51
2023-06-19T00:17:59.317Z,32.72
2023-06-19T00:18:59.303Z,32.75
2023-06-19T00:19:59.362Z,32.72
2023-06-19T00:20:59.424Z,32.72
2023-06-19T00:21:59.486Z,32.63
2023-06-19T00:22:59.558Z,32.67
2023-06-19T00:23:59.606Z,32.86
2023-06-19T00:24:59.620Z,32.72
2023-06-19T00:25:59.686Z,32.78
2023-06-19T00:26:59.768Z,32.81
2023-06-19T00:27:59.794Z,32.64
2023-06-19T00:28:59.838Z,32.81
2023-06-19T00:29:59.925Z,32.65
2023-06-19T00:30:59.960Z,32.91
2023-06-19T00:32:00.004Z,32.70
2023-06-19T00:33:00.139Z,32.83
2023-06-19T00:34:00.113Z,32.99
2023-06-19T00:35:00.194Z,32.83
2023-06-19T00:36:00.234Z,32.77
2023-06-19T00:37:00.264Z,32.78
2023-06-19T00:38:00.292Z,32.78
2023-06-19T00:39:00.363Z,32.72
2023-06-19T00:40:00.445Z,32.66
2023-06-19T00:41:00.491Z,33.13
2023-06-19T00:42:00.545Z,32.90
2023-06-19T00:43:00.582Z,32.93
2023-06-19T00:44:00.644Z,32.85
2023-06-19T00:45:00.683Z,33.17
2023-06-19T00:46:00.784Z,32.86
2023-06-19T00:47:01.251Z,32.78
2023-06-19T00:48:00.911Z,32.93
2023-06-19T00:49:00.907Z,32.91
2023-06-19T00:50:00.999Z,33.17
2023-06-19T00:51:01.013Z,33.16
2023-06-19T00:52:01.091Z,33.04
2023-06-19T00:53:01.140Z,33.16
2023-06-19T00:54:01.212Z,33.05
2023-06-19T00:55:01.229Z,32.99
2023-06-19T00:56:01.272Z,33.10
2023-06-19T00:57:01.378Z,33.25
2023-06-19T00:58:01.378Z,33.01
2023-06-19T00:59:01.484Z,33.19
2023-06-19T01:00:01.545Z,33.05
2023-06-19T01:01:08.899Z,33.23
2023-06-19T01:02:02.654Z,33.22
2023-06-19T01:03:01.647Z,33.29
2023-06-19T01:04:01.741Z,33.29
2023-06-19T01:05:01.540Z,33.24
2023-06-19T01:06:01.570Z,33.26
2023-06-19T01:07:01.541Z,33.32
2023-06-19T01:08:01.526Z,33.26
2023-06-19T01:09:01.592Z,33.29
2023-06-19T01:10:01.523Z,33.24
2023-06-19T01:11:06.745Z,33.29
2023-06-19T01:12:02.536Z,33.32
2023-06-19T01:13:01.509Z,33.32
2023-06-19T01:14:01.550Z,33.30
2023-06-19T01:15:01.506Z,33.26
2023-06-19T01:16:01.509Z,33.32
2023-06-19T01:17:01.559Z,33.38
2023-06-19T01:18:01.483Z,33.41
2023-06-19T01:19:02.006Z,33.38
2023-06-19T01:20:01.500Z,33.41
2023-06-19T01:21:01.487Z,33.41
2023-06-19T01:22:01.546Z,33.45
2023-06-19T01:23:01.599Z,33.37
2023-06-19T01:24:01.671Z,33.49
2023-06-19T01:25:01.711Z,33.50
2023-06-19T01:26:01.763Z,33.41
2023-06-19T01:27:01.835Z,33.37
2023-06-19T01:28:01.883Z,33.49
2023-06-19T01:29:01.954Z,33.42
2023-06-19T01:30:02.017Z,33.44
2023-06-19T01:31:02.070Z,33.41
2023-06-19T01:32:02.128Z,33.34
2023-06-19T01:33:02.230Z,33.45
2023-06-19T01:34:02.259Z,33.40
2023-06-19T01:35:02.361Z,33.44
2023-06-19T01:36:02.347Z,33.42
2023-06-19T01:37:02.445Z,33.34
2023-06-19T01:38:02.623Z,33.26
2023-06-19T01:39:02.529Z,33.49
2023-06-19T01:40:02.610Z,33.51
2023-06-19T01:41:02.690Z,33.50
2023-06-19T01:42:02.727Z,33.53
2023-06-19T01:43:02.785Z,33.49
2023-06-19T01:44:03.491Z,33.41
2023-06-19T01:45:02.905Z,33.55
2023-06-19T01:46:03.012Z,33.62
2023-06-19T01:47:03.010Z,33.62
2023-06-19T01:48:03.170Z,33.60
2023-06-19T01:49:03.204Z,33.71
2023-06-19T01:50:03.167Z,33.65
2023-06-19T01:51:03.233Z,33.77
2023-06-19T01:52:03.343Z,33.63
2023-06-19T01:53:03.419Z,33.71
2023-06-19T01:54:03.426Z,33.74
2023-06-19T01:55:03.524Z,33.80
2023-06-19T01:56:03.536Z,33.78
2023-06-19T01:57:03.625Z,33.78
2023-06-19T01:58:03.675Z,33.87
2023-06-19T01:59:03.739Z,33.91
2023-06-19T02:00:03.824Z,33.76
2023-06-19T02:01:03.860Z,33.88
2023-06-19T02:02:03.896Z,33.92
2023-06-19T02:03:04.098Z,33.84
2023-06-19T02:04:04.125Z,33.93
2023-06-19T02:05:04.094Z,33.95
2023-06-19T02:06:04.115Z,33.95
2023-06-19T02:07:04.201Z,33.91
2023-06-19T02:08:04.268Z,33.95
2023-06-19T02:09:04.329Z,33.95
2023-06-19T02:10:04.396Z,34.06
2023-06-19T02:11:04.420Z,34.06
2023-06-19T02:12:04.526Z,34.11
2023-06-19T02:13:04.572Z,34.06
2023-06-19T02:14:04.630Z,34.12
2023-06-19T02:15:04.700Z,34.13
2023-06-19T02:16:04.793Z,34.14
2023-06-19T02:17:04.825Z,34.17
2023-06-19T02:18:04.900Z,34.09
2023-06-19T02:19:04.913Z,34.17
2023-06-19T02:20:04.934Z,34.17
2023-06-19T02:21:05.001Z,34.17
2023-06-19T02:22:05.064Z,34.13
2023-06-19T02:23:05.090Z,34.10
2023-06-19T02:24:05.335Z,34.16
2023-06-19T02:25:05.252Z,34.16
2023-06-19T02:26:05.282Z,34.17
2023-06-19T02:27:05.331Z,34.18
2023-06-19T02:28:05.377Z,34.20
2023-06-19T02:29:05.435Z,34.14
2023-06-19T02:30:05.529Z,34.13
2023-06-19T02:31:05.568Z,34.10
2023-06-19T02:32:05.638Z,34.10
2023-06-19T02:33:05.746Z,34.15
2023-06-19T02:34:05.724Z,34.15
2023-06-19T02:35:05.769Z,34.11
2023-06-19T02:36:05.859Z,34.17
2023-06-19T02:37:05.909Z,34.16
2023-06-19T02:38:05.945Z,34.18
2023-06-19T02:39:06.037Z,34.17
2023-06-19T02:40:06.121Z,34.14
2023-06-19T02:41:06.130Z,34.10
2023-06-19T02:42:06.140Z,34.08
2023-06-19T02:43:06.190Z,34.13
2023-06-19T02:44:06.270Z,34.14
2023-06-19T02:45:06.279Z,34.11
2023-06-19T02:46:06.372Z,34.15
2023-06-19T02:47:06.381Z,34.14
2023-06-19T02:48:06.497Z,34.16
2023-06-19T02:49:06.504Z,34.13
2023-06-19T02:50:06.522Z,34.15
2023-06-19T02:51:06.589Z,34.16
2023-06-19T02:52:06.663Z,34.16
2023-06-19T02:53:06.708Z,34.21
2023-06-19T02:54:06.746Z,34.18
2023-06-19T02:55:06.775Z,34.19
2023-06-19T02:56:06.856Z,34.19
2023-06-19T02:57:06.889Z,34.24
2023-06-19T02:58:06.947Z,34.21
2023-06-19T02:59:06.985Z,34.21
2023-06-19T03:00:07.079Z,34.24
2023-06-19T03:01:07.089Z,34.22
2023-06-19T03:02:07.177Z,34.21
2023-06-19T03:03:07.330Z,34.31
2023-06-19T03:04:07.284Z,34.22
2023-06-19T03:05:07.292Z,34.25
2023-06-19T03:06:08.266Z,34.28
2023-06-19T03:07:07.408Z,34.22
2023-06-19T03:08:07.534Z,34.32
2023-06-19T03:09:07.556Z,34.32
2023-06-19T03:10:07.622Z,34.36
2023-06-19T03:11:07.677Z,34.33
2023-06-19T03:12:07.735Z,34.32
2023-06-19T03:13:07.789Z,34.32
2023-06-19T03:14:07.839Z,34.33
2023-06-19T03:15:07.907Z,34.32
2023-06-19T03:16:07.974Z,34.33
2023-06-19T03:17:08.251Z,34.38
2023-06-19T03:18:08.129Z,34.42
2023-06-19T03:19:08.163Z,34.41
2023-06-19T03:20:08.237Z,34.36
2023-06-19T03:21:08.248Z,34.37
2023-06-19T03:22:08.317Z,34.32
2023-06-19T03:23:08.426Z,34.42
2023-06-19T03:24:08.504Z,34.35
2023-06-19T03:25:08.512Z,34.38
2023-06-19T03:26:08.578Z,34.42
2023-06-19T03:27:08.618Z,34.45
2023-06-19T03:28:08.684Z,34.39
2023-06-19T03:29:08.756Z,34.37
2023-06-19T03:30:08.822Z,34.38
2023-06-19T03:31:08.870Z,34.41
2023-06-19T03:32:08.938Z,34.35
2023-06-19T03:33:08.992Z,34.37
2023-06-19T03:34:09.033Z,34.36
2023-06-19T03:35:09.065Z,34.36
2023-06-19T03:36:09.128Z,34.42
2023-06-19T03:37:09.175Z,34.39
2023-06-19T03:38:09.256Z,34.33
2023-06-19T03:39:09.314Z,34.40
2023-06-19T03:40:09.335Z,34.39
2023-06-19T03:41:09.415Z,34.43
2023-06-19T03:42:09.446Z,34.45
2023-06-19T03:43:09.546Z,34.42
2023-06-19T03:44:09.574Z,34.35
2023-06-19T03:45:09.632Z,34.42
2023-06-19T03:46:09.739Z,34.43
2023-06-19T03:47:09.750Z,34.44
2023-06-19T03:48:09.830Z,34.42
2023-06-19T03:49:09.851Z,34.33
2023-06-19T03:50:19.774Z,34.40
2023-06-19T03:51:10.918Z,34.42
2023-06-19T03:52:09.917Z,34.41
2023-06-19T03:53:09.907Z,34.40
2023-06-19T03:54:09.878Z,34.39
2023-06-19T03:55:09.845Z,34.48
2023-06-19T03:56:09.886Z,34.43
2023-06-19T03:57:09.876Z,34.48
2023-06-19T03:58:09.833Z,34.46
2023-06-19T03:59:09.852Z,34.45
2023-06-19T04:00:09.846Z,34.47
2023-06-19T04:01:09.936Z,34.50
2023-06-19T04:02:09.943Z,34.47
2023-06-19T04:03:10.089Z,34.46
2023-06-19T04:04:10.110Z,34.48
2023-06-19T04:05:10.049Z,34.57
2023-06-19T04:06:10.047Z,34.53
2023-06-19T04:07:10.055Z,34.53
2023-06-19T04:08:10.100Z,34.57
2023-06-19T04:09:10.144Z,34.61
2023-06-19T04:10:10.133Z,34.60
2023-06-19T04:11:10.152Z,34.61
2023-06-19T04:12:10.156Z,34.62
2023-06-19T04:13:10.163Z,34.66
2023-06-19T04:14:10.163Z,34.71
2023-06-19T04:15:10.185Z,34.62
2023-06-19T04:16:10.240Z,34.70
2023-06-19T04:17:10.221Z,34.65
2023-06-19T04:18:10.231Z,34.69
2023-06-19T04:19:10.237Z,34.68
2023-06-19T04:20:10.231Z,34.65
2023-06-19T04:21:10.251Z,34.69
2023-06-19T04:22:10.286Z,34.68
2023-06-19T04:23:10.310Z,34.65
2023-06-19T04:24:10.392Z,34.65
2023-06-19T04:25:10.384Z,34.69
2023-06-19T04:26:10.377Z,34.68
2023-06-19T04:27:10.440Z,34.68
2023-06-19T04:28:10.487Z,34.69
2023-06-19T04:29:10.528Z,34.69
2023-06-19T04:30:10.546Z,34.69
2023-06-19T04:31:10.551Z,34.69
2023-06-19T04:32:10.586Z,34.68
2023-06-19T04:33:10.641Z,34.64
2023-06-19T04:34:10.593Z,34.65
2023-06-19T04:35:10.667Z,34.66
2023-06-19T04:36:10.673Z,34.63
2023-06-19T04:37:10.742Z,34.66
2023-06-19T04:38:10.737Z,34.66
2023-06-19T04:39:10.794Z,34.63
2023-06-19T04:40:10.803Z,34.74
2023-06-19T04:41:10.820Z,34.64
2023-06-19T04:42:10.841Z,34.69
2023-06-19T04:43:10.887Z,34.68
2023-06-19T04:44:10.933Z,34.64
2023-06-19T04:45:11.012Z,34.64
2023-06-19T04:46:10.987Z,34.63
2023-06-19T04:47:11.000Z,34.68
2023-06-19T04:48:11.086Z,34.69
2023-06-19T04:49:11.065Z,34.68
2023-06-19T04:50:11.092Z,34.65
2023-06-19T04:51:11.098Z,34.93
2023-06-19T04:52:11.144Z,35.06
2023-06-19T04:53:11.125Z,35.10
2023-06-19T04:54:12.080Z,35.21
2023-06-19T04:55:11.162Z,35.37
2023-06-19T04:56:11.100Z,35.55
2023-06-19T04:57:11.141Z,35.68
2023-06-19T04:58:11.151Z,35.70
2023-06-19T04:59:11.150Z,35.76
2023-06-19T05:00:11.283Z,35.89
2023-06-19T05:01:11.244Z,35.97
2023-06-19T05:02:11.199Z,35.94
2023-06-19T05:03:11.200Z,35.80
2023-06-19T05:04:11.194Z,35.82
2023-06-19T05:05:11.227Z,35.81
2023-06-19T05:06:11.226Z,35.74
2023-06-19T05:07:11.201Z,35.80
2023-06-19T05:08:11.209Z,35.95
2023-06-19T05:09:11.258Z,36.06
2023-06-19T05:10:11.254Z,36.15
2023-06-19T05:11:11.311Z,36.23
2023-06-19T05:12:11.292Z,36.27
2023-06-19T05:13:11.325Z,36.41
2023-06-19T05:14:11.293Z,36.41
2023-06-19T05:15:11.303Z,36.40
2023-06-19T05:16:11.346Z,36.52
2023-06-19T05:17:11.385Z,36.55
2023-06-19T05:18:11.328Z,36.63
2023-06-19T05:19:11.307Z,36.56
2023-06-19T05:20:11.309Z,36.68
2023-06-19T05:21:11.310Z,36.69
2023-06-19T05:22:11.337Z,36.73
2023-06-19T05:23:11.370Z,36.81
2023-06-19T05:24:11.401Z,36.83
2023-06-19T05:25:11.327Z,36.87
2023-06-19T05:26:11.291Z,36.76
2023-06-19T05:27:11.332Z,36.90
2023-06-19T05:28:11.326Z,36.95
2023-06-19T05:29:11.318Z,36.91
2023-06-19T05:30:11.338Z,36.94
2023-06-19T05:31:11.346Z,36.95
2023-06-19T05:32:11.306Z,36.94
2023-06-19T05:33:11.429Z,37.04
2023-06-19T05:34:11.312Z,37.09
2023-06-19T05:35:13.780Z,37.11
2023-06-19T05:36:11.299Z,37.57
2023-06-19T05:37:11.315Z,37.35
2023-06-19T05:38:11.359Z,37.26
2023-06-19T05:39:11.306Z,37.16
2023-06-19T05:40:11.321Z,37.29
2023-06-19T05:41:11.266Z,37.19
2023-06-19T05:42:11.320Z,37.14
2023-06-19T05:43:11.293Z,37.42
2023-06-19T05:44:11.262Z,37.17
2023-06-19T05:45:11.273Z,37.43
2023-06-19T05:46:11.297Z,37.29
2023-06-19T05:47:11.261Z,37.50
2023-06-19T05:48:11.338Z,37.81
2023-06-19T05:49:11.268Z,38.04
2023-06-19T05:50:11.232Z,38.33
2023-06-19T05:51:11.229Z,38.60
2023-06-19T05:52:11.234Z,38.44
2023-06-19T05:53:12.803Z,38.76
2023-06-19T05:54:11.230Z,38.65
2023-06-19T05:55:11.265Z,39.80
2023-06-19T05:56:11.204Z,39.37
2023-06-19T05:57:11.207Z,39.78
2023-06-19T05:58:11.231Z,40.07
2023-06-19T05:59:11.231Z,39.95
2023-06-19T06:00:11.203Z,40.09
2023-06-19T06:01:11.289Z,40.17
2023-06-19T06:02:11.174Z,40.11
2023-06-19T06:03:11.248Z,40.27
2023-06-19T06:04:11.207Z,40.19
2023-06-19T06:05:11.206Z,40.28
2023-06-19T06:06:11.129Z,40.19
2023-06-19T06:07:11.139Z,40.00
2023-06-19T06:08:11.094Z,40.67
2023-06-19T06:09:11.136Z,40.33
2023-06-19T06:10:11.108Z,40.35
2023-06-19T06:11:11.112Z,40.75
2023-06-19T06:12:11.155Z,40.88
2023-06-19T06:13:11.115Z,40.88
2023-06-19T06:14:13.273Z,40.90
2023-06-19T06:15:11.159Z,41.03
2023-06-19T06:16:11.212Z,41.03
2023-06-19T06:17:11.273Z,41.21
2023-06-19T06:18:11.199Z,41.24
2023-06-19T06:19:11.224Z,41.09
2023-06-19T06:20:11.187Z,41.27
2023-06-19T06:21:11.245Z,41.34
2023-06-19T06:22:11.204Z,41.42
2023-06-19T06:23:11.170Z,41.31
2023-06-19T06:24:11.251Z,41.35
2023-06-19T06:25:13.180Z,41.42
2023-06-19T06:26:11.188Z,41.38
2023-06-19T06:27:11.149Z,41.42
2023-06-19T06:28:11.186Z,41.48
2023-06-19T06:29:11.169Z,41.60
2023-06-19T06:30:11.158Z,41.83
2023-06-19T06:31:11.144Z,41.86
2023-06-19T06:32:11.177Z,41.83
2023-06-19T06:33:11.139Z,41.74
2023-06-19T06:34:12.120Z,41.76
2023-06-19T06:35:11.113Z,41.81
2023-06-19T06:36:12.567Z,41.88
2023-06-19T06:37:11.139Z,41.91
2023-06-19T06:38:11.125Z,41.93
2023-06-19T06:39:11.071Z,41.98
2023-06-19T06:40:11.105Z,42.08
2023-06-19T06:41:11.079Z,42.08
2023-06-19T06:42:11.070Z,42.21
2023-06-19T06:43:11.085Z,42.11
2023-06-19T06:44:11.070Z,42.18
2023-06-19T06:45:11.110Z,42.16
2023-06-19T06:46:11.064Z,42.25
2023-06-19T06:47:11.041Z,42.63
2023-06-19T06:48:11.208Z,42.53
2023-06-19T06:49:11.050Z,42.36
2023-06-19T06:50:11.045Z,42.33
2023-06-19T06:51:11.029Z,42.06
2023-06-19T06:52:11.018Z,42.43
2023-06-19T06:53:11.049Z,42.18
2023-06-19T06:54:11.002Z,42.08
2023-06-19T06:55:11.066Z,42.22
2023-06-19T06:56:11.002Z,42.26
2023-06-19T06:57:10.959Z,42.50
2023-06-19T06:58:10.990Z,42.60
2023-06-19T06:59:11.028Z,42.66
2023-06-19T07:00:11.091Z,42.58
2023-06-19T07:01:11.137Z,42.55
2023-06-19T07:02:11.258Z,42.67
2023-06-19T07:03:11.329Z,42.74
2023-06-19T07:04:11.302Z,42.75
2023-06-19T07:05:11.376Z,42.91
2023-06-19T07:06:12.108Z,42.94
2023-06-19T07:07:11.481Z,43.03
2023-06-19T07:08:11.557Z,43.28
2023-06-19T07:09:11.629Z,43.42
2023-06-19T07:10:11.653Z,43.28
2023-06-19T07:11:11.703Z,43.41
2023-06-19T07:12:11.751Z,43.49
2023-06-19T07:13:11.801Z,43.66
2023-06-19T07:14:11.831Z,43.82
2023-06-19T07:15:11.917Z,43.81
2023-06-19T07:16:11.962Z,43.75
2023-06-19T07:17:12.082Z,44.00
2023-06-19T07:18:12.067Z,44.02
2023-06-19T07:19:12.032Z,44.06
2023-06-19T07:20:12.080Z,44.21
2023-06-19T07:21:12.109Z,44.44
2023-06-19T07:22:12.165Z,44.46
2023-06-19T07:23:12.202Z,44.44
2023-06-19T07:24:12.255Z,44.46
2023-06-19T07:25:12.502Z,44.61
2023-06-19T07:26:12.270Z,44.61
2023-06-19T07:27:12.297Z,44.66
2023-06-19T07:28:12.406Z,44.83
2023-06-19T07:29:12.351Z,44.90
2023-06-19T07:30:14.859Z,45.07
2023-06-19T07:31:12.351Z,45.11
2023-06-19T07:32:12.372Z,45.14
2023-06-19T07:33:12.405Z,45.13
2023-06-19T07:34:12.350Z,44.99
2023-06-19T07:35:12.374Z,45.12
2023-06-19T07:36:12.326Z,45.18
2023-06-19T07:37:12.322Z,45.27
2023-06-19T07:38:12.327Z,45.19
2023-06-19T07:39:12.341Z,45.34
2023-06-19T07:40:12.318Z,45.29
2023-06-19T07:41:12.327Z,43.28
2023-06-19T07:42:12.305Z,43.74
2023-06-19T07:43:12.288Z,43.93
2023-06-19T07:44:12.325Z,43.86
2023-06-19T07:45:12.277Z,43.49
2023-06-19T07:46:12.327Z,43.29
2023-06-19T07:47:12.469Z,43.28
2023-06-19T07:48:12.363Z,43.26
2023-06-19T07:49:12.274Z,43.23
2023-06-19T07:50:12.261Z,43.15
2023-06-19T07:51:12.257Z,42.88
2023-06-19T07:52:12.236Z,42.94
2023-06-19T07:53:12.248Z,42.96
2023-06-19T07:54:12.201Z,42.90
2023-06-19T07:55:12.256Z,42.86
2023-06-19T07:56:12.221Z,42.87
2023-06-19T07:57:12.421Z,42.82
2023-06-19T07:58:12.232Z,42.84
2023-06-19T07:59:12.203Z,42.83
2023-06-19T08:00:12.231Z,42.80
2023-06-19T08:01:12.167Z,42.79
2023-06-19T08:02:12.191Z,42.77
2023-06-19T08:03:12.332Z,42.75
2023-06-19T08:04:12.274Z,42.71
2023-06-19T08:05:12.407Z,42.72
2023-06-19T08:06:12.397Z,42.74
2023-06-19T08:07:12.444Z,42.67
2023-06-19T08:08:12.504Z,42.75
2023-06-19T08:09:12.580Z,42.87
2023-06-19T08:10:14.619Z,42.82
2023-06-19T08:11:12.677Z,42.80
2023-06-19T08:12:12.750Z,42.86
2023-06-19T08:13:12.814Z,42.90
2023-06-19T08:14:12.835Z,42.94
2023-06-19T08:15:12.925Z,42.93
2023-06-19T08:16:13.800Z,42.97
2023-06-19T08:17:13.050Z,42.96
2023-06-19T08:18:13.095Z,42.95
2023-06-19T08:19:13.103Z,42.93
2023-06-19T08:20:13.139Z,43.04
2023-06-19T08:21:13.195Z,42.97
2023-06-19T08:22:13.243Z,42.96
2023-06-19T08:23:13.272Z,43.03
2023-06-19T08:24:13.409Z,42.99
2023-06-19T08:25:13.411Z,43.05
2023-06-19T08:26:13.489Z,42.99
2023-06-19T08:27:13.525Z,42.89
2023-06-19T08:28:13.549Z,42.97
2023-06-19T08:29:13.641Z,42.99
2023-06-19T08:30:13.718Z,42.93
2023-06-19T08:31:13.780Z,42.96
2023-06-19T08:32:13.817Z,43.01
2023-06-19T08:33:14.035Z,42.94
2023-06-19T08:34:13.939Z,42.96
2023-06-19T08:35:14.008Z,42.98
2023-06-19T08:36:14.033Z,42.87
2023-06-19T08:37:14.139Z,42.87
2023-06-19T08:38:14.190Z,42.53
2023-06-19T08:39:14.228Z,42.12
2023-06-19T08:40:14.276Z,41.82
2023-06-19T08:41:14.377Z,41.86
2023-06-19T08:42:14.434Z,41.82
2023-06-19T08:43:14.473Z,41.61
2023-06-19T08:44:14.515Z,41.70
2023-06-19T08:45:14.582Z,41.86
2023-06-19T08:46:14.649Z,41.77
2023-06-19T08:47:14.667Z,42.15
2023-06-19T08:48:14.752Z,42.05
2023-06-19T08:49:14.780Z,41.82
2023-06-19T08:50:14.864Z,41.74
2023-06-19T08:51:14.910Z,41.59
2023-06-19T08:52:14.966Z,42.26
2023-06-19T08:53:15.595Z,41.77
2023-06-19T08:54:15.067Z,42.04
2023-06-19T08:55:15.130Z,42.47
2023-06-19T08:56:15.243Z,43.00
2023-06-19T08:57:15.284Z,43.57
2023-06-19T08:58:15.295Z,43.75
2023-06-19T08:59:15.283Z,43.80
2023-06-19T09:00:15.354Z,44.22
2023-06-19T09:01:15.431Z,44.09
2023-06-19T09:02:15.430Z,44.26
2023-06-19T09:03:15.547Z,44.53
2023-06-19T09:04:15.508Z,44.60
2023-06-19T09:05:15.524Z,44.58
2023-06-19T09:06:15.671Z,44.79
2023-06-19T09:07:15.750Z,44.84
2023-06-19T09:08:15.559Z,44.91
2023-06-19T09:09:15.564Z,44.88
2023-06-19T09:10:15.603Z,44.63
2023-06-19T09:11:15.587Z,44.96
2023-06-19T09:12:15.614Z,44.84
2023-06-19T09:13:15.637Z,45.14
2023-06-19T09:14:15.664Z,45.03
2023-06-19T09:15:15.752Z,45.27
2023-06-19T09:16:15.826Z,45.55
2023-06-19T09:17:15.933Z,45.62
2023-06-19T09:18:16.049Z,46.19
2023-06-19T09:19:16.010Z,45.68
2023-06-19T09:20:16.027Z,45.96
2023-06-19T09:21:16.025Z,46.03
2023-06-19T09:22:16.024Z,46.27
2023-06-19T09:23:16.030Z,46.03
2023-06-19T09:24:16.091Z,46.08
2023-06-19T09:25:16.136Z,45.99
2023-06-19T09:26:16.193Z,46.12
2023-06-19T09:27:16.251Z,46.12
2023-06-19T09:28:16.320Z,46.20
2023-06-19T09:29:17.913Z,46.01
2023-06-19T09:30:16.370Z,46.08
2023-06-19T09:31:16.376Z,46.49
2023-06-19T09:32:16.378Z,46.33
2023-06-19T09:33:16.441Z,46.58
2023-06-19T09:34:16.315Z,46.53
2023-06-19T09:35:16.377Z,46.75
2023-06-19T09:36:16.348Z,46.74
2023-06-19T09:37:16.344Z,46.98
2023-06-19T09:38:16.337Z,46.92
2023-06-19T09:39:16.311Z,47.01
2023-06-19T09:40:16.305Z,47.02
2023-06-19T09:41:16.293Z,46.44
2023-06-19T09:42:16.288Z,45.78
2023-06-19T09:43:16.308Z,45.58
2023-06-19T09:44:16.301Z,43.86
2023-06-19T09:45:16.306Z,44.95
2023-06-19T09:46:16.302Z,42.61
2023-06-19T09:47:16.320Z,43.35
2023-06-19T09:48:16.295Z,43.77
2023-06-19T09:49:16.249Z,43.76
2023-06-19T09:50:16.270Z,43.20
2023-06-19T09:51:16.251Z,42.79
2023-06-19T09:52:16.273Z,43.34
2023-06-19T09:53:16.262Z,43.40
2023-06-19T09:54:16.343Z,44.01
2023-06-19T09:55:16.336Z,43.61
2023-06-19T09:56:16.459Z,43.72
2023-06-19T09:57:16.466Z,43.21
2023-06-19T09:58:16.516Z,42.24
2023-06-19T09:59:16.578Z,42.48
2023-06-19T10:00:16.578Z,42.59
2023-06-19T10:01:16.631Z,42.38
2023-06-19T10:02:16.742Z,42.19
2023-06-19T10:03:16.793Z,42.64
2023-06-19T10:04:16.780Z,42.50
2023-06-19T10:05:16.852Z,42.31
2023-06-19T10:06:16.885Z,42.00
2023-06-19T10:07:16.937Z,41.82
2023-06-19T10:08:16.985Z,41.86
2023-06-19T10:09:17.044Z,41.56
2023-06-19T10:10:17.108Z,41.83
2023-06-19T10:11:17.171Z,41.52
2023-06-19T10:12:17.217Z,41.45
2023-06-19T10:13:17.290Z,41.96
2023-06-19T10:14:17.353Z,41.57
2023-06-19T10:15:17.400Z,40.73
2023-06-19T10:16:17.481Z,41.22
2023-06-19T10:17:17.525Z,41.86
2023-06-19T10:18:17.752Z,41.74
2023-06-19T10:19:17.684Z,41.32
2023-06-19T10:20:17.699Z,40.98
2023-06-19T10:21:17.743Z,41.12
2023-06-19T10:22:17.793Z,41.12
2023-06-19T10:23:20.770Z,40.96
2023-06-19T10:24:17.881Z,40.75
2023-06-19T10:25:17.837Z,41.21
2023-06-19T10:26:17.841Z,41.28
2023-06-19T10:27:17.839Z,41.08
2023-06-19T10:28:17.850Z,41.18
2023-06-19T10:29:17.780Z,41.09
2023-06-19T10:30:17.840Z,41.12
2023-06-19T10:31:17.821Z,41.07
2023-06-19T10:32:17.777Z,40.24
2023-06-19T10:33:17.755Z,40.87
2023-06-19T10:34:17.778Z,40.76
2023-06-19T10:35:17.771Z,40.40
2023-06-19T10:36:17.724Z,40.56
2023-06-19T10:37:17.729Z,40.39
2023-06-19T10:38:17.817Z,40.70
2023-06-19T10:39:17.732Z,39.00
2023-06-19T10:40:17.725Z,40.14
2023-06-19T10:41:17.724Z,38.56
2023-06-19T10:42:17.734Z,39.06
2023-06-19T10:43:17.731Z,38.01
2023-06-19T10:44:17.677Z,36.80
2023-06-19T10:45:17.691Z,36.92
2023-06-19T10:46:17.769Z,38.28
2023-06-19T10:47:17.715Z,37.64
2023-06-19T10:48:17.710Z,38.40
2023-06-19T10:49:17.680Z,38.63
2023-06-19T10:50:17.695Z,38.00
2023-06-19T10:51:17.646Z,37.90
2023-06-19T10:52:17.675Z,38.25
2023-06-19T10:53:17.671Z,38.57
2023-06-19T10:54:17.656Z,38.73
2023-06-19T10:55:17.644Z,38.78
2023-06-19T10:56:17.626Z,38.91
2023-06-19T10:57:17.627Z,39.08
2023-06-19T10:58:17.644Z,39.36
2023-06-19T10:59:17.624Z,39.24
2023-06-19T11:00:17.634Z,39.42
2023-06-19T11:01:17.608Z,38.74
2023-06-19T11:02:17.629Z,38.97
2023-06-19T11:03:17.717Z,39.18
2023-06-19T11:04:17.574Z,39.46
2023-06-19T11:05:17.544Z,39.84
2023-06-19T11:06:17.601Z,39.74
2023-06-19T11:07:17.565Z,39.41
2023-06-19T11:08:17.599Z,40.03
2023-06-19T11:09:17.550Z,39.98
2023-06-19T11:10:17.534Z,39.80
2023-06-19T11:11:17.556Z,39.52
2023-06-19T11:12:17.551Z,40.18
2023-06-19T11:13:17.518Z,39.87
2023-06-19T11:14:17.510Z,40.03
2023-06-19T11:15:17.521Z,40.01
2023-06-19T11:16:17.565Z,39.92
2023-06-19T11:17:17.559Z,39.81
2023-06-19T11:18:17.532Z,39.54
2023-06-19T11:19:17.537Z,38.74
2023-06-19T11:20:17.599Z,39.18
2023-06-19T11:21:17.573Z,39.68
2023-06-19T11:22:17.567Z,39.42
2023-06-19T11:23:17.605Z,39.35
2023-06-19T11:24:17.603Z,39.04
2023-06-19T11:25:17.638Z,39.11
2023-06-19T11:26:17.567Z,38.94
2023-06-19T11:27:17.615Z,39.98
2023-06-19T11:28:17.598Z,39.07
2023-06-19T11:29:17.643Z,39.32
2023-06-19T11:30:17.609Z,39.54
2023-06-19T11:31:17.671Z,40.17
2023-06-19T11:32:17.627Z,38.90
2023-06-19T11:33:17.657Z,39.12
2023-06-19T11:34:17.708Z,38.98
2023-06-19T11:35:17.642Z,38.77
2023-06-19T11:36:17.655Z,38.21
2023-06-19T11:37:17.637Z,38.33
2023-06-19T11:38:17.687Z,38.53
2023-06-19T11:39:17.673Z,38.31
2023-06-19T11:40:17.739Z,38.28
2023-06-19T11:41:17.712Z,38.18
2023-06-19T11:42:17.746Z,37.96
2023-06-19T11:43:17.767Z,37.97
2023-06-19T11:44:17.823Z,37.93
2023-06-19T11:45:17.834Z,37.94
2023-06-19T11:46:17.914Z,37.84
2023-06-19T11:47:17.904Z,37.81
2023-06-19T11:48:17.932Z,37.50
2023-06-19T11:49:17.971Z,37.67
2023-06-19T11:50:17.986Z,37.33
2023-06-19T11:51:18.034Z,37.46
2023-06-19T11:52:18.115Z,37.71
2023-06-19T11:53:18.108Z,37.39
2023-06-19T11:54:18.138Z,37.48
2023-06-19T11:55:18.166Z,37.36
2023-06-19T11:56:18.196Z,37.32
2023-06-19T11:57:18.210Z,37.66
2023-06-19T11:58:18.257Z,37.36
2023-06-19T11:59:18.280Z,37.40
2023-06-19T12:00:18.322Z,37.48
2023-06-19T12:01:18.332Z,37.30
2023-06-19T12:02:18.483Z,37.36
2023-06-19T12:03:18.481Z,37.54
2023-06-19T12:04:18.620Z,37.48
2023-06-19T12:05:18.471Z,37.43
2023-06-19T12:06:18.468Z,37.55
2023-06-19T12:07:18.509Z,37.61
2023-06-19T12:08:18.555Z,37.50
2023-06-19T12:09:18.571Z,37.54
2023-06-19T12:10:18.600Z,37.50
2023-06-19T12:11:18.617Z,37.34
2023-06-19T12:12:18.641Z,38.78
2023-06-19T12:13:18.720Z,37.92
2023-06-19T12:14:18.720Z,37.26
2023-06-19T12:15:18.759Z,37.02
2023-06-19T12:16:18.877Z,36.81
2023-06-19T12:17:18.815Z,36.79
2023-06-19T12:18:18.786Z,36.60
2023-06-19T12:19:21.387Z,37.14
2023-06-19T12:20:19.068Z,36.67
2023-06-19T12:21:32.721Z,36.42
2023-06-19T12:22:20.075Z,36.61
2023-06-19T12:23:19.068Z,36.94
2023-06-19T12:24:19.136Z,37.99
2023-06-19T12:25:19.061Z,36.19
2023-06-19T12:26:19.066Z,37.10
2023-06-19T12:27:19.034Z,37.25
2023-06-19T12:28:19.090Z,37.22
2023-06-19T12:29:19.051Z,36.74
2023-06-19T12:30:19.038Z,36.73
2023-06-19T12:31:19.064Z,36.63
2023-06-19T12:32:19.004Z,36.39
2023-06-19T12:33:19.008Z,36.44
2023-06-19T12:34:30.472Z,36.25
2023-06-19T12:35:19.989Z,36.24
2023-06-19T12:36:19.053Z,36.23
2023-06-19T12:37:18.973Z,36.04
2023-06-19T12:38:19.032Z,36.10
2023-06-19T12:39:19.018Z,36.07
2023-06-19T12:40:18.923Z,36.06
2023-06-19T12:41:18.929Z,35.91
2023-06-19T12:42:18.966Z,35.89
2023-06-19T12:43:18.951Z,35.86
2023-06-19T12:44:18.959Z,35.82
2023-06-19T12:45:19.004Z,35.77
2023-06-19T12:46:18.928Z,35.72
2023-06-19T12:47:18.906Z,35.73
2023-06-19T12:48:18.944Z,35.63
2023-06-19T12:49:18.947Z,35.57
2023-06-19T12:50:18.999Z,35.46
2023-06-19T12:51:19.042Z,35.46
2023-06-19T12:52:19.120Z,35.46
2023-06-19T12:53:19.141Z,35.40